sensor_id;sensor_type;location;lat;lon;timestamp;P1;durP1;ratioP1;P2;durP2;ratioP2
20505;SDS011;10411;48.148;7.704;2023-02-15T00:01:04;25.70;;;23.30;;
20505;SDS011;10411;48.148;7.704;2023-02-15T00:03:30;23.53;;;21.50;;
20505;SDS011;10411;48.148;7.704;2023-02-15T00:05:56;24.67;;;22.27;;
20505;SDS011;10411;48.148;7.704;2023-02-15T00:08:22;24.30;;;22.53;;
20505;SDS011;10411;48.148;7.704;2023-02-15T00:10:48;23.20;;;21.60;;
20505;SDS011;10411;48.148;7.704;2023-02-15T00:13:14;23.10;;;21.27;;
20505;SDS011;10411;48.148;7.704;2023-02-15T00:15:40;22.50;;;21.00;;
20505;SDS011;10411;48.148;7.704;2023-02-15T00:18:06;21.13;;;19.70;;
20505;SDS011;10411;48.148;7.704;2023-02-15T00:20:32;20.83;;;19.50;;
20505;SDS011;10411;48.148;7.704;2023-02-15T00:22:58;22.90;;;21.10;;
20505;SDS011;10411;48.148;7.704;2023-02-15T00:25:24;23.87;;;21.93;;
20505;SDS011;10411;48.148;7.704;2023-02-15T00:27:50;23.83;;;22.07;;
20505;SDS011;10411;48.148;7.704;2023-02-15T00:30:16;21.37;;;19.87;;
20505;SDS011;10411;48.148;7.704;2023-02-15T00:32:42;22.53;;;20.80;;
20505;SDS011;10411;48.148;7.704;2023-02-15T00:35:08;22.23;;;20.73;;
20505;SDS011;10411;48.148;7.704;2023-02-15T00:37:35;21.30;;;19.90;;
20505;SDS011;10411;48.148;7.704;2023-02-15T00:40:01;21.70;;;20.03;;
20505;SDS011;10411;48.148;7.704;2023-02-15T00:42:27;20.73;;;19.47;;
20505;SDS011;10411;48.148;7.704;2023-02-15T00:44:53;21.50;;;20.03;;
20505;SDS011;10411;48.148;7.704;2023-02-15T00:47:19;21.47;;;20.13;;
20505;SDS011;10411;48.148;7.704;2023-02-15T00:49:45;21.73;;;20.23;;
20505;SDS011;10411;48.148;7.704;2023-02-15T00:52:11;22.30;;;20.80;;
20505;SDS011;10411;48.148;7.704;2023-02-15T00:54:37;31.83;;;21.47;;
20505;SDS011;10411;48.148;7.704;2023-02-15T00:57:03;23.40;;;21.27;;
20505;SDS011;10411;48.148;7.704;2023-02-15T00:59:29;24.20;;;22.17;;
20505;SDS011;10411;48.148;7.704;2023-02-15T01:01:55;21.00;;;19.70;;
20505;SDS011;10411;48.148;7.704;2023-02-15T01:04:21;20.83;;;19.53;;
20505;SDS011;10411;48.148;7.704;2023-02-15T01:06:47;21.10;;;19.70;;
20505;SDS011;10411;48.148;7.704;2023-02-15T01:09:13;21.03;;;19.63;;
20505;SDS011;10411;48.148;7.704;2023-02-15T01:11:39;20.77;;;19.47;;
20505;SDS011;10411;48.148;7.704;2023-02-15T01:14:05;22.03;;;20.63;;
20505;SDS011;10411;48.148;7.704;2023-02-15T01:16:31;21.43;;;20.13;;
20505;SDS011;10411;48.148;7.704;2023-02-15T01:18:57;21.03;;;19.63;;
20505;SDS011;10411;48.148;7.704;2023-02-15T01:21:23;21.43;;;19.97;;
20505;SDS011;10411;48.148;7.704;2023-02-15T01:23:50;22.53;;;20.93;;
20505;SDS011;10411;48.148;7.704;2023-02-15T01:26:16;21.17;;;19.77;;
20505;SDS011;10411;48.148;7.704;2023-02-15T01:28:42;20.67;;;19.37;;
20505;SDS011;10411;48.148;7.704;2023-02-15T01:31:08;21.20;;;19.80;;
20505;SDS011;10411;48.148;7.704;2023-02-15T01:33:35;21.77;;;20.27;;
20505;SDS011;10411;48.148;7.704;2023-02-15T01:36:01;21.97;;;20.57;;
20505;SDS011;10411;48.148;7.704;2023-02-15T01:38:27;21.77;;;20.23;;
20505;SDS011;10411;48.148;7.704;2023-02-15T01:40:53;21.30;;;20.00;;
20505;SDS011;10411;48.148;7.704;2023-02-15T01:43:44;20.93;;;19.53;;
20505;SDS011;10411;48.148;7.704;2023-02-15T01:46:10;21.40;;;20.00;;
20505;SDS011;10411;48.148;7.704;2023-02-15T01:48:40;21.90;;;20.50;;
20505;SDS011;10411;48.148;7.704;2023-02-15T01:51:07;20.27;;;19.07;;
20505;SDS011;10411;48.148;7.704;2023-02-15T01:53:34;21.20;;;19.90;;
20505;SDS011;10411;48.148;7.704;2023-02-15T01:56:12;21.60;;;20.20;;
20505;SDS011;10411;48.148;7.704;2023-02-15T01:58:38;20.87;;;19.57;;
20505;SDS011;10411;48.148;7.704;2023-02-15T02:01:04;21.10;;;19.67;;
20505;SDS011;10411;48.148;7.704;2023-02-15T02:04:20;20.93;;;19.63;;
20505;SDS011;10411;48.148;7.704;2023-02-15T02:06:19;21.03;;;19.73;;
20505;SDS011;10411;48.148;7.704;2023-02-15T02:08:45;21.60;;;20.20;;
20505;SDS011;10411;48.148;7.704;2023-02-15T02:11:12;21.37;;;19.97;;
20505;SDS011;10411;48.148;7.704;2023-02-15T02:13:39;22.00;;;20.50;;
20505;SDS011;10411;48.148;7.704;2023-02-15T02:24:45;20.77;;;19.47;;
20505;SDS011;10411;48.148;7.704;2023-02-15T02:35:01;20.50;;;19.20;;
20505;SDS011;10411;48.148;7.704;2023-02-15T02:42:40;26.30;;;23.70;;
20505;SDS011;10411;48.148;7.704;2023-02-15T02:45:15;23.07;;;21.53;;
20505;SDS011;10411;48.148;7.704;2023-02-15T02:47:49;22.30;;;20.80;;
20505;SDS011;10411;48.148;7.704;2023-02-15T02:50:17;21.30;;;20.00;;
20505;SDS011;10411;48.148;7.704;2023-02-15T02:52:44;21.73;;;20.33;;
20505;SDS011;10411;48.148;7.704;2023-02-15T02:57:42;20.93;;;19.63;;
20505;SDS011;10411;48.148;7.704;2023-02-15T03:00:09;21.30;;;19.93;;
20505;SDS011;10411;48.148;7.704;2023-02-15T03:02:37;21.13;;;19.73;;
20505;SDS011;10411;48.148;7.704;2023-02-15T03:05:05;21.90;;;20.37;;
20505;SDS011;10411;48.148;7.704;2023-02-15T03:07:32;21.73;;;20.33;;
20505;SDS011;10411;48.148;7.704;2023-02-15T03:10:01;23.77;;;22.07;;
20505;SDS011;10411;48.148;7.704;2023-02-15T03:12:28;27.03;;;24.67;;
20505;SDS011;10411;48.148;7.704;2023-02-15T03:15:03;23.83;;;22.07;;
20505;SDS011;10411;48.148;7.704;2023-02-15T03:17:31;23.27;;;21.67;;
20505;SDS011;10411;48.148;7.704;2023-02-15T03:19:58;23.43;;;21.73;;
20505;SDS011;10411;48.148;7.704;2023-02-15T03:22:45;23.80;;;22.07;;
20505;SDS011;10411;48.148;7.704;2023-02-15T03:25:15;23.87;;;22.23;;
20505;SDS011;10411;48.148;7.704;2023-02-15T03:27:44;24.07;;;22.23;;
20505;SDS011;10411;48.148;7.704;2023-02-15T03:30:11;25.67;;;23.47;;
20505;SDS011;10411;48.148;7.704;2023-02-15T03:32:38;25.50;;;23.40;;
20505;SDS011;10411;48.148;7.704;2023-02-15T03:35:04;24.03;;;22.43;;
20505;SDS011;10411;48.148;7.704;2023-02-15T03:37:41;23.93;;;22.10;;
20505;SDS011;10411;48.148;7.704;2023-02-15T03:40:09;24.37;;;22.50;;
20505;SDS011;10411;48.148;7.704;2023-02-15T03:42:59;25.70;;;23.03;;
20505;SDS011;10411;48.148;7.704;2023-02-15T03:45:27;24.97;;;23.13;;
20505;SDS011;10411;48.148;7.704;2023-02-15T03:47:54;27.00;;;24.30;;
20505;SDS011;10411;48.148;7.704;2023-02-15T03:50:23;28.53;;;26.00;;
20505;SDS011;10411;48.148;7.704;2023-02-15T03:53:10;26.57;;;24.37;;
20505;SDS011;10411;48.148;7.704;2023-02-15T03:55:37;27.53;;;24.73;;
20505;SDS011;10411;48.148;7.704;2023-02-15T03:58:04;25.33;;;23.43;;
20505;SDS011;10411;48.148;7.704;2023-02-15T04:00:49;23.63;;;22.03;;
20505;SDS011;10411;48.148;7.704;2023-02-15T04:03:39;24.63;;;22.80;;
20505;SDS011;10411;48.148;7.704;2023-02-15T04:06:05;23.60;;;22.00;;
20505;SDS011;10411;48.148;7.704;2023-02-15T04:08:31;22.20;;;20.67;;
20505;SDS011;10411;48.148;7.704;2023-02-15T04:11:15;24.30;;;22.50;;
20505;SDS011;10411;48.148;7.704;2023-02-15T04:13:41;25.17;;;23.00;;
20505;SDS011;10411;48.148;7.704;2023-02-15T04:16:08;26.13;;;24.03;;
20505;SDS011;10411;48.148;7.704;2023-02-15T04:18:35;25.13;;;23.27;;
20505;SDS011;10411;48.148;7.704;2023-02-15T04:21:20;27.03;;;24.80;;
20505;SDS011;10411;48.148;7.704;2023-02-15T04:24:05;25.80;;;23.73;;
20505;SDS011;10411;48.148;7.704;2023-02-15T04:26:50;26.33;;;24.13;;
20505;SDS011;10411;48.148;7.704;2023-02-15T04:29:19;27.93;;;24.83;;
20505;SDS011;10411;48.148;7.704;2023-02-15T04:31:45;27.83;;;24.90;;
20505;SDS011;10411;48.148;7.704;2023-02-15T04:34:11;28.43;;;25.73;;
20505;SDS011;10411;48.148;7.704;2023-02-15T04:36:37;28.77;;;26.27;;
20505;SDS011;10411;48.148;7.704;2023-02-15T04:39:04;32.73;;;25.83;;
20505;SDS011;10411;48.148;7.704;2023-02-15T04:41:30;27.97;;;25.07;;
20505;SDS011;10411;48.148;7.704;2023-02-15T05:25:17;25.10;;;23.10;;
20505;SDS011;10411;48.148;7.704;2023-02-15T05:59:57;27.90;;;25.30;;
20505;SDS011;10411;48.148;7.704;2023-02-15T06:02:23;29.37;;;26.13;;
20505;SDS011;10411;48.148;7.704;2023-02-15T06:04:49;29.13;;;26.10;;
20505;SDS011;10411;48.148;7.704;2023-02-15T06:07:15;38.37;;;26.70;;
20505;SDS011;10411;48.148;7.704;2023-02-15T06:09:41;25.87;;;23.77;;
20505;SDS011;10411;48.148;7.704;2023-02-15T06:12:07;27.55;;;24.85;;
20505;SDS011;10411;48.148;7.704;2023-02-15T06:14:33;30.50;;;26.90;;
20505;SDS011;10411;48.148;7.704;2023-02-15T07:25:04;23.00;;;21.40;;
20505;SDS011;10411;48.148;7.704;2023-02-15T07:27:30;22.10;;;20.70;;
20505;SDS011;10411;48.148;7.704;2023-02-15T07:29:57;23.33;;;21.47;;
20505;SDS011;10411;48.148;7.704;2023-02-15T07:32:23;30.03;;;24.90;;
20505;SDS011;10411;48.148;7.704;2023-02-15T07:34:49;27.77;;;24.73;;
20505;SDS011;10411;48.148;7.704;2023-02-15T07:37:14;22.90;;;21.27;;
20505;SDS011;10411;48.148;7.704;2023-02-15T07:39:40;23.80;;;22.00;;
20505;SDS011;10411;48.148;7.704;2023-02-15T07:42:06;24.90;;;22.83;;
20505;SDS011;10411;48.148;7.704;2023-02-15T07:44:32;26.23;;;24.13;;
20505;SDS011;10411;48.148;7.704;2023-02-15T07:46:58;24.63;;;22.73;;
20505;SDS011;10411;48.148;7.704;2023-02-15T07:49:24;24.83;;;22.83;;
20505;SDS011;10411;48.148;7.704;2023-02-15T07:51:50;25.93;;;23.70;;
20505;SDS011;10411;48.148;7.704;2023-02-15T07:54:16;22.57;;;20.97;;
20505;SDS011;10411;48.148;7.704;2023-02-15T07:56:42;24.10;;;22.27;;
20505;SDS011;10411;48.148;7.704;2023-02-15T07:59:08;22.17;;;20.67;;
20505;SDS011;10411;48.148;7.704;2023-02-15T08:01:35;20.70;;;19.20;;
20505;SDS011;10411;48.148;7.704;2023-02-15T08:04:02;20.20;;;18.90;;
20505;SDS011;10411;48.148;7.704;2023-02-15T08:06:29;19.87;;;18.57;;
20505;SDS011;10411;48.148;7.704;2023-02-15T08:08:56;20.10;;;18.80;;
20505;SDS011;10411;48.148;7.704;2023-02-15T08:11:23;21.83;;;20.30;;
20505;SDS011;10411;48.148;7.704;2023-02-15T08:16:34;21.57;;;19.97;;
20505;SDS011;10411;48.148;7.704;2023-02-15T08:19:02;20.50;;;19.07;;
20505;SDS011;10411;48.148;7.704;2023-02-15T08:21:29;20.43;;;19.07;;
20505;SDS011;10411;48.148;7.704;2023-02-15T08:23:56;20.30;;;19.00;;
20505;SDS011;10411;48.148;7.704;2023-02-15T08:26:22;21.60;;;20.10;;
20505;SDS011;10411;48.148;7.704;2023-02-15T08:28:48;21.97;;;20.47;;
20505;SDS011;10411;48.148;7.704;2023-02-15T08:31:15;22.07;;;20.53;;
20505;SDS011;10411;48.148;7.704;2023-02-15T08:33:42;20.63;;;19.23;;
20505;SDS011;10411;48.148;7.704;2023-02-15T08:36:12;25.20;;;23.07;;
20505;SDS011;10411;48.148;7.704;2023-02-15T08:38:38;23.03;;;21.43;;
20505;SDS011;10411;48.148;7.704;2023-02-15T08:41:11;21.63;;;20.13;;
20505;SDS011;10411;48.148;7.704;2023-02-15T08:43:38;21.77;;;20.17;;
20505;SDS011;10411;48.148;7.704;2023-02-15T08:46:05;21.57;;;19.87;;
20505;SDS011;10411;48.148;7.704;2023-02-15T08:48:31;21.97;;;20.43;;
20505;SDS011;10411;48.148;7.704;2023-02-15T08:50:57;25.40;;;23.00;;
20505;SDS011;10411;48.148;7.704;2023-02-15T08:53:23;23.10;;;21.40;;
20505;SDS011;10411;48.148;7.704;2023-02-15T08:55:58;23.37;;;21.53;;
20505;SDS011;10411;48.148;7.704;2023-02-15T08:58:24;21.37;;;19.87;;
20505;SDS011;10411;48.148;7.704;2023-02-15T09:00:51;20.70;;;19.30;;
20505;SDS011;10411;48.148;7.704;2023-02-15T09:03:17;20.97;;;19.47;;
20505;SDS011;10411;48.148;7.704;2023-02-15T09:05:43;21.23;;;19.73;;
20505;SDS011;10411;48.148;7.704;2023-02-15T09:08:09;21.87;;;20.23;;
20505;SDS011;10411;48.148;7.704;2023-02-15T09:10:35;22.27;;;20.77;;
20505;SDS011;10411;48.148;7.704;2023-02-15T09:13:01;22.67;;;21.10;;
20505;SDS011;10411;48.148;7.704;2023-02-15T09:15:27;21.20;;;19.80;;
20505;SDS011;10411;48.148;7.704;2023-02-15T09:17:53;20.73;;;19.37;;
20505;SDS011;10411;48.148;7.704;2023-02-15T09:20:18;20.10;;;18.80;;
20505;SDS011;10411;48.148;7.704;2023-02-15T09:22:45;20.70;;;19.30;;
20505;SDS011;10411;48.148;7.704;2023-02-15T09:25:10;21.23;;;19.73;;
20505;SDS011;10411;48.148;7.704;2023-02-15T09:27:38;20.67;;;19.27;;
20505;SDS011;10411;48.148;7.704;2023-02-15T09:30:05;21.23;;;19.63;;
20505;SDS011;10411;48.148;7.704;2023-02-15T09:32:31;20.93;;;19.47;;
20505;SDS011;10411;48.148;7.704;2023-02-15T09:34:57;20.00;;;18.60;;
20505;SDS011;10411;48.148;7.704;2023-02-15T09:37:22;20.17;;;18.77;;
20505;SDS011;10411;48.148;7.704;2023-02-15T09:39:48;19.67;;;18.37;;
20505;SDS011;10411;48.148;7.704;2023-02-15T10:03:15;21.13;;;19.70;;
20505;SDS011;10411;48.148;7.704;2023-02-15T10:06:02;23.07;;;21.37;;
20505;SDS011;10411;48.148;7.704;2023-02-15T10:08:44;22.13;;;20.63;;
20505;SDS011;10411;48.148;7.704;2023-02-15T10:19:41;21.97;;;20.47;;
20505;SDS011;10411;48.148;7.704;2023-02-15T10:22:17;22.13;;;20.73;;
20505;SDS011;10411;48.148;7.704;2023-02-15T10:24:55;25.57;;;23.67;;
20505;SDS011;10411;48.148;7.704;2023-02-15T10:27:24;25.77;;;23.67;;
20505;SDS011;10411;48.148;7.704;2023-02-15T10:32:27;22.40;;;20.83;;
20505;SDS011;10411;48.148;7.704;2023-02-15T10:34:58;21.83;;;20.37;;
20505;SDS011;10411;48.148;7.704;2023-02-15T10:40:14;23.20;;;21.50;;
20505;SDS011;10411;48.148;7.704;2023-02-15T10:45:12;23.30;;;21.50;;
20505;SDS011;10411;48.148;7.704;2023-02-15T10:47:41;23.40;;;21.50;;
20505;SDS011;10411;48.148;7.704;2023-02-15T10:50:17;22.63;;;20.87;;
20505;SDS011;10411;48.148;7.704;2023-02-15T10:52:59;22.37;;;20.77;;
20505;SDS011;10411;48.148;7.704;2023-02-15T11:03:43;25.17;;;23.27;;
20505;SDS011;10411;48.148;7.704;2023-02-15T11:06:13;23.17;;;21.50;;
20505;SDS011;10411;48.148;7.704;2023-02-15T11:08:45;22.00;;;20.40;;
20505;SDS011;10411;48.148;7.704;2023-02-15T11:11:14;23.77;;;21.87;;
20505;SDS011;10411;48.148;7.704;2023-02-15T11:13:43;24.67;;;22.67;;
20505;SDS011;10411;48.148;7.704;2023-02-15T11:16:16;22.00;;;20.40;;
20505;SDS011;10411;48.148;7.704;2023-02-15T11:23:42;21.20;;;19.80;;
20505;SDS011;10411;48.148;7.704;2023-02-15T11:28:55;25.07;;;23.10;;
20505;SDS011;10411;48.148;7.704;2023-02-15T11:31:26;24.23;;;22.53;;
20505;SDS011;10411;48.148;7.704;2023-02-15T11:33:53;23.70;;;21.80;;
20505;SDS011;10411;48.148;7.704;2023-02-15T11:36:26;24.90;;;23.00;;
20505;SDS011;10411;48.148;7.704;2023-02-15T11:38:58;23.00;;;21.40;;
20505;SDS011;10411;48.148;7.704;2023-02-15T11:41:27;21.37;;;19.97;;
20505;SDS011;10411;48.148;7.704;2023-02-15T11:43:56;22.30;;;20.70;;
20505;SDS011;10411;48.148;7.704;2023-02-15T11:46:23;22.27;;;20.77;;
20505;SDS011;10411;48.148;7.704;2023-02-15T11:48:49;21.30;;;19.90;;
20505;SDS011;10411;48.148;7.704;2023-02-15T11:51:18;22.93;;;21.33;;
20505;SDS011;10411;48.148;7.704;2023-02-15T14:06:44;22.47;;;20.77;;
20505;SDS011;10411;48.148;7.704;2023-02-15T14:11:44;23.17;;;21.47;;
20505;SDS011;10411;48.148;7.704;2023-02-15T14:19:27;23.80;;;22.07;;
20505;SDS011;10411;48.148;7.704;2023-02-15T14:32:04;24.93;;;22.83;;
20505;SDS011;10411;48.148;7.704;2023-02-15T14:49:32;26.63;;;24.33;;
20505;SDS011;10411;48.148;7.704;2023-02-15T15:09:35;23.00;;;21.30;;
20505;SDS011;10411;48.148;7.704;2023-02-15T16:10:19;24.07;;;22.27;;
20505;SDS011;10411;48.148;7.704;2023-02-15T16:13:05;23.90;;;22.10;;
20505;SDS011;10411;48.148;7.704;2023-02-15T16:16:07;24.90;;;22.90;;
20505;SDS011;10411;48.148;7.704;2023-02-15T16:18:37;24.13;;;22.23;;
20505;SDS011;10411;48.148;7.704;2023-02-15T16:30:30;25.03;;;23.13;;
20505;SDS011;10411;48.148;7.704;2023-02-15T16:45:19;24.87;;;22.87;;
20505;SDS011;10411;48.148;7.704;2023-02-15T16:48:19;25.40;;;23.30;;
20505;SDS011;10411;48.148;7.704;2023-02-15T16:56:59;24.57;;;22.67;;
20505;SDS011;10411;48.148;7.704;2023-02-15T16:59:41;23.17;;;21.47;;
20505;SDS011;10411;48.148;7.704;2023-02-15T17:02:52;24.30;;;22.40;;
20505;SDS011;10411;48.148;7.704;2023-02-15T17:05:20;22.77;;;20.97;;
20505;SDS011;10411;48.148;7.704;2023-02-15T17:22:58;20.67;;;19.07;;
20505;SDS011;10411;48.148;7.704;2023-02-15T17:25:26;21.57;;;19.97;;
20505;SDS011;10411;48.148;7.704;2023-02-15T17:27:54;21.60;;;20.00;;
20505;SDS011;10411;48.148;7.704;2023-02-15T17:30:28;23.23;;;21.30;;
20505;SDS011;10411;48.148;7.704;2023-02-15T17:32:56;21.63;;;20.03;;
20505;SDS011;10411;48.148;7.704;2023-02-15T17:35:23;25.50;;;22.60;;
20505;SDS011;10411;48.148;7.704;2023-02-15T17:37:50;22.83;;;20.80;;
20505;SDS011;10411;48.148;7.704;2023-02-15T17:40:26;20.80;;;19.20;;
20505;SDS011;10411;48.148;7.704;2023-02-15T17:42:53;22.10;;;20.40;;
20505;SDS011;10411;48.148;7.704;2023-02-15T17:45:19;22.10;;;20.30;;
20505;SDS011;10411;48.148;7.704;2023-02-15T17:47:46;30.73;;;23.10;;
20505;SDS011;10411;48.148;7.704;2023-02-15T17:50:17;46.23;;;27.10;;
20505;SDS011;10411;48.148;7.704;2023-02-15T17:52:44;45.37;;;27.60;;
20505;SDS011;10411;48.148;7.704;2023-02-15T17:55:14;47.87;;;26.53;;
20505;SDS011;10411;48.148;7.704;2023-02-15T17:57:59;35.70;;;25.03;;
20505;SDS011;10411;48.148;7.704;2023-02-15T18:00:26;23.63;;;21.73;;
20505;SDS011;10411;48.148;7.704;2023-02-15T18:03:10;23.27;;;21.10;;
20505;SDS011;10411;48.148;7.704;2023-02-15T18:05:56;21.97;;;20.17;;
20505;SDS011;10411;48.148;7.704;2023-02-15T18:08:41;28.73;;;23.27;;
20505;SDS011;10411;48.148;7.704;2023-02-15T18:20:31;23.87;;;21.87;;
20505;SDS011;10411;48.148;7.704;2023-02-15T18:29:29;23.73;;;21.00;;
20505;SDS011;10411;48.148;7.704;2023-02-15T18:32:34;24.53;;;22.10;;
20505;SDS011;10411;48.148;7.704;2023-02-15T18:35:00;24.57;;;22.27;;
20505;SDS011;10411;48.148;7.704;2023-02-15T18:37:28;22.77;;;20.60;;
20505;SDS011;10411;48.148;7.704;2023-02-15T18:39:54;24.50;;;22.27;;
20505;SDS011;10411;48.148;7.704;2023-02-15T18:42:21;25.27;;;22.93;;
20505;SDS011;10411;48.148;7.704;2023-02-15T18:44:48;23.85;;;21.85;;
20505;SDS011;10411;48.148;7.704;2023-02-15T18:47:14;21.90;;;20.10;;
20505;SDS011;10411;48.148;7.704;2023-02-15T18:49:40;21.80;;;20.10;;
20505;SDS011;10411;48.148;7.704;2023-02-15T18:52:09;22.63;;;20.73;;
20505;SDS011;10411;48.148;7.704;2023-02-15T18:54:38;23.20;;;21.17;;
20505;SDS011;10411;48.148;7.704;2023-02-15T18:57:04;21.27;;;19.67;;
20505;SDS011;10411;48.148;7.704;2023-02-15T18:59:30;23.10;;;21.07;;
20505;SDS011;10411;48.148;7.704;2023-02-15T19:01:56;22.20;;;20.43;;
20505;SDS011;10411;48.148;7.704;2023-02-15T19:04:24;22.37;;;20.67;;
20505;SDS011;10411;48.148;7.704;2023-02-15T19:06:50;20.77;;;19.27;;
20505;SDS011;10411;48.148;7.704;2023-02-15T19:09:17;21.87;;;20.23;;
20505;SDS011;10411;48.148;7.704;2023-02-15T19:11:48;22.00;;;20.30;;
20505;SDS011;10411;48.148;7.704;2023-02-15T19:14:25;21.40;;;19.90;;
20505;SDS011;10411;48.148;7.704;2023-02-15T19:16:51;22.53;;;20.77;;
20505;SDS011;10411;48.148;7.704;2023-02-15T19:19:17;22.00;;;20.30;;
20505;SDS011;10411;48.148;7.704;2023-02-15T19:21:43;24.03;;;22.20;;
20505;SDS011;10411;48.148;7.704;2023-02-15T19:24:12;22.30;;;20.70;;
20505;SDS011;10411;48.148;7.704;2023-02-15T19:26:40;22.43;;;20.83;;
20505;SDS011;10411;48.148;7.704;2023-02-15T19:29:08;22.00;;;20.40;;
20505;SDS011;10411;48.148;7.704;2023-02-15T19:31:35;21.40;;;19.90;;
20505;SDS011;10411;48.148;7.704;2023-02-15T19:34:03;24.03;;;22.13;;
20505;SDS011;10411;48.148;7.704;2023-02-15T19:36:34;24.27;;;22.43;;
20505;SDS011;10411;48.148;7.704;2023-02-15T19:39:00;25.93;;;23.60;;
20505;SDS011;10411;48.148;7.704;2023-02-15T19:41:28;24.83;;;22.93;;
20505;SDS011;10411;48.148;7.704;2023-02-15T19:43:55;23.53;;;21.43;;
20505;SDS011;10411;48.148;7.704;2023-02-15T19:46:21;23.50;;;21.70;;
20505;SDS011;10411;48.148;7.704;2023-02-15T19:48:51;23.87;;;22.00;;
20505;SDS011;10411;48.148;7.704;2023-02-15T19:51:18;25.53;;;23.33;;
20505;SDS011;10411;48.148;7.704;2023-02-15T19:53:46;26.10;;;23.77;;
20505;SDS011;10411;48.148;7.704;2023-02-15T19:56:13;24.00;;;22.00;;
20505;SDS011;10411;48.148;7.704;2023-02-15T19:58:42;25.13;;;22.93;;
20505;SDS011;10411;48.148;7.704;2023-02-15T20:01:08;23.50;;;21.63;;
20505;SDS011;10411;48.148;7.704;2023-02-15T20:03:34;23.70;;;21.90;;
20505;SDS011;10411;48.148;7.704;2023-02-15T20:06:00;24.60;;;22.70;;
20505;SDS011;10411;48.148;7.704;2023-02-15T20:08:27;23.80;;;22.00;;
20505;SDS011;10411;48.148;7.704;2023-02-15T20:10:53;23.70;;;21.80;;
20505;SDS011;10411;48.148;7.704;2023-02-15T20:13:19;23.43;;;21.50;;
20505;SDS011;10411;48.148;7.704;2023-02-15T20:15:45;23.57;;;21.83;;
20505;SDS011;10411;48.148;7.704;2023-02-15T20:18:11;23.90;;;22.03;;
20505;SDS011;10411;48.148;7.704;2023-02-15T20:20:41;22.83;;;21.23;;
20505;SDS011;10411;48.148;7.704;2023-02-15T20:23:26;24.10;;;22.30;;
20505;SDS011;10411;48.148;7.704;2023-02-15T20:25:53;24.60;;;22.70;;
20505;SDS011;10411;48.148;7.704;2023-02-15T20:28:20;24.63;;;22.57;;
20505;SDS011;10411;48.148;7.704;2023-02-15T20:30:46;24.07;;;22.20;;
20505;SDS011;10411;48.148;7.704;2023-02-15T20:33:12;25.53;;;23.47;;
20505;SDS011;10411;48.148;7.704;2023-02-15T20:35:38;26.60;;;24.40;;
20505;SDS011;10411;48.148;7.704;2023-02-15T20:38:05;26.90;;;24.53;;
20505;SDS011;10411;48.148;7.704;2023-02-15T20:40:32;27.60;;;24.70;;
20505;SDS011;10411;48.148;7.704;2023-02-15T20:42:58;26.13;;;23.73;;
20505;SDS011;10411;48.148;7.704;2023-02-15T20:45:25;27.70;;;25.30;;
20505;SDS011;10411;48.148;7.704;2023-02-15T20:47:52;26.23;;;23.93;;
20505;SDS011;10411;48.148;7.704;2023-02-15T20:50:18;24.83;;;22.93;;
20505;SDS011;10411;48.148;7.704;2023-02-15T20:52:45;25.23;;;23.23;;
20505;SDS011;10411;48.148;7.704;2023-02-15T20:55:12;23.73;;;21.93;;
20505;SDS011;10411;48.148;7.704;2023-02-15T20:57:39;23.90;;;22.10;;
20505;SDS011;10411;48.148;7.704;2023-02-15T21:00:05;24.03;;;22.27;;
20505;SDS011;10411;48.148;7.704;2023-02-15T21:02:32;25.13;;;23.27;;
20505;SDS011;10411;48.148;7.704;2023-02-15T21:04:58;25.13;;;23.23;;
20505;SDS011;10411;48.148;7.704;2023-02-15T21:07:25;25.90;;;23.80;;
20505;SDS011;10411;48.148;7.704;2023-02-15T21:09:51;23.90;;;22.20;;
20505;SDS011;10411;48.148;7.704;2023-02-15T21:12:18;25.47;;;23.53;;
20505;SDS011;10411;48.148;7.704;2023-02-15T21:14:46;25.73;;;23.77;;
20505;SDS011;10411;48.148;7.704;2023-02-15T21:17:12;25.17;;;23.37;;
20505;SDS011;10411;48.148;7.704;2023-02-15T21:19:39;26.30;;;24.20;;
20505;SDS011;10411;48.148;7.704;2023-02-15T21:22:05;28.23;;;25.73;;
20505;SDS011;10411;48.148;7.704;2023-02-15T21:24:31;36.43;;;31.87;;
20505;SDS011;10411;48.148;7.704;2023-02-15T21:26:57;38.13;;;33.93;;
20505;SDS011;10411;48.148;7.704;2023-02-15T21:29:25;39.07;;;35.07;;
20505;SDS011;10411;48.148;7.704;2023-02-15T21:31:52;39.27;;;35.37;;
20505;SDS011;10411;48.148;7.704;2023-02-15T21:34:18;34.63;;;31.30;;
20505;SDS011;10411;48.148;7.704;2023-02-15T21:36:44;37.07;;;33.33;;
20505;SDS011;10411;48.148;7.704;2023-02-15T21:39:20;32.13;;;29.27;;
20505;SDS011;10411;48.148;7.704;2023-02-15T21:41:47;30.23;;;27.73;;
20505;SDS011;10411;48.148;7.704;2023-02-15T21:44:32;35.60;;;32.17;;
20505;SDS011;10411;48.148;7.704;2023-02-15T21:47:18;37.10;;;33.57;;
20505;SDS011;10411;48.148;7.704;2023-02-15T21:50:05;37.17;;;33.67;;
20505;SDS011;10411;48.148;7.704;2023-02-15T21:52:50;36.13;;;32.83;;
20505;SDS011;10411;48.148;7.704;2023-02-15T21:55:16;35.27;;;32.10;;
20505;SDS011;10411;48.148;7.704;2023-02-15T21:57:42;34.30;;;31.20;;
20505;SDS011;10411;48.148;7.704;2023-02-15T22:00:26;35.03;;;31.67;;
20505;SDS011;10411;48.148;7.704;2023-02-15T22:02:53;32.87;;;30.03;;
20505;SDS011;10411;48.148;7.704;2023-02-15T22:05:24;35.17;;;31.77;;
20505;SDS011;10411;48.148;7.704;2023-02-15T22:07:51;33.67;;;30.70;;
20505;SDS011;10411;48.148;7.704;2023-02-15T22:10:17;33.80;;;30.80;;
20505;SDS011;10411;48.148;7.704;2023-02-15T22:12:43;34.27;;;31.13;;
20505;SDS011;10411;48.148;7.704;2023-02-15T22:15:16;37.77;;;34.37;;
20505;SDS011;10411;48.148;7.704;2023-02-15T22:17:42;39.37;;;35.47;;
20505;SDS011;10411;48.148;7.704;2023-02-15T22:20:12;38.63;;;34.87;;
20505;SDS011;10411;48.148;7.704;2023-02-15T22:22:39;38.07;;;34.37;;
20505;SDS011;10411;48.148;7.704;2023-02-15T22:25:05;37.87;;;34.27;;
20505;SDS011;10411;48.148;7.704;2023-02-15T22:27:32;35.50;;;32.07;;
20505;SDS011;10411;48.148;7.704;2023-02-15T22:29:59;28.80;;;26.47;;
20505;SDS011;10411;48.148;7.704;2023-02-15T22:32:25;31.60;;;28.83;;
20505;SDS011;10411;48.148;7.704;2023-02-15T22:34:52;30.97;;;28.20;;
20505;SDS011;10411;48.148;7.704;2023-02-15T22:37:18;32.67;;;29.73;;
20505;SDS011;10411;48.148;7.704;2023-02-15T22:39:44;39.40;;;35.57;;
20505;SDS011;10411;48.148;7.704;2023-02-15T22:44:45;38.33;;;34.53;;
20505;SDS011;10411;48.148;7.704;2023-02-15T22:47:16;38.13;;;34.17;;
20505;SDS011;10411;48.148;7.704;2023-02-15T22:49:44;35.83;;;32.53;;
20505;SDS011;10411;48.148;7.704;2023-02-15T22:52:13;33.67;;;30.60;;
20505;SDS011;10411;48.148;7.704;2023-02-15T22:54:39;31.40;;;28.60;;
20505;SDS011;10411;48.148;7.704;2023-02-15T22:57:04;31.33;;;28.63;;
20505;SDS011;10411;48.148;7.704;2023-02-15T22:59:33;28.53;;;26.17;;
20505;SDS011;10411;48.148;7.704;2023-02-15T23:01:59;31.67;;;28.87;;
20505;SDS011;10411;48.148;7.704;2023-02-15T23:04:27;35.00;;;31.63;;
20505;SDS011;10411;48.148;7.704;2023-02-15T23:06:54;34.50;;;31.27;;
20505;SDS011;10411;48.148;7.704;2023-02-15T23:09:23;35.27;;;31.93;;
20505;SDS011;10411;48.148;7.704;2023-02-15T23:11:49;30.67;;;28.07;;
20505;SDS011;10411;48.148;7.704;2023-02-15T23:14:26;32.17;;;29.27;;
20505;SDS011;10411;48.148;7.704;2023-02-15T23:16:53;31.03;;;28.33;;